Yacolt, Washington
Current Conditions -  °F | °C
As of 4:53 AM on Thursday 23 Oct 2014 (Local Time) from KVUO Reporting Station
Light Rain Light Rain  
Wind Chill: 54°   Ceiling: 6000
Heat Index: 54°   Visibility: 9mi
Dew Point: 52°   Wind: 7mph
Humidity: 93%   Direction: 110°ESE
Pressure: 29.77"   Gusts: NA
Location:  45.87°N, 122.41°W
Report Text: KVUO 231153Z AUTO 11006KT 9SM -RA FEW038 FEW049 OVC060 12/11 A2977 RMK AO2 SLP081 P0011 60015 70183 T01220111 10133 20122 56002
Loading
Personal Weather Stations






























Interactive Weather Map
Tropical Storm Tracking
New forecast layout! Learn more

10-Day Weather Forecast

Advertisements
Track Severe Weather on mobile